createdAt,value
2022-12-06T00:00:20.986Z,17.80
2022-12-06T00:02:49.513Z,20.30
2022-12-06T00:05:16.816Z,18.77
2022-12-06T00:07:44.037Z,20.70
2022-12-06T00:10:11.296Z,18.40
2022-12-06T00:12:38.455Z,19.77
2022-12-06T00:15:05.833Z,19.87
2022-12-06T00:17:33.007Z,19.30
2022-12-06T00:20:01.847Z,19.40
2022-12-06T00:22:29.263Z,21.33
2022-12-06T00:24:56.425Z,21.37
2022-12-06T00:27:23.587Z,22.13
2022-12-06T00:29:50.764Z,19.67
2022-12-06T00:32:19.860Z,21.07
2022-12-06T00:34:47.164Z,21.80
2022-12-06T00:37:15.681Z,21.50
2022-12-06T00:39:42.839Z,22.70
2022-12-06T00:42:09.965Z,20.90
2022-12-06T00:44:37.121Z,20.57
2022-12-06T00:47:04.299Z,22.07
2022-12-06T00:49:31.458Z,21.43
2022-12-06T00:51:58.612Z,22.33
2022-12-06T00:54:27.204Z,22.90
2022-12-06T00:56:54.334Z,23.60
2022-12-06T00:59:21.471Z,22.47
2022-12-06T01:01:48.721Z,22.03
2022-12-06T01:04:15.961Z,24.30
2022-12-06T01:06:43.156Z,22.67
2022-12-06T01:09:10.870Z,25.30
2022-12-06T01:11:39.367Z,23.40
2022-12-06T01:14:06.621Z,25.20
2022-12-06T01:16:33.752Z,24.83
2022-12-06T01:19:02.394Z,28.50
2022-12-06T01:21:30.151Z,25.23
2022-12-06T01:23:57.314Z,27.40
2022-12-06T01:26:25.375Z,24.50
2022-12-06T01:28:54.204Z,24.47
2022-12-06T01:31:21.557Z,38.30
2022-12-06T01:33:48.681Z,28.93
2022-12-06T01:36:16.406Z,25.80
2022-12-06T01:38:43.513Z,41.13
2022-12-06T01:41:10.586Z,52.93
2022-12-06T01:43:38.827Z,41.10
2022-12-06T01:46:21.142Z,49.37
2022-12-06T01:48:49.046Z,27.97
2022-12-06T01:51:16.492Z,25.80
2022-12-06T01:53:45.355Z,28.20
2022-12-06T01:56:13.178Z,28.63
2022-12-06T01:58:41.972Z,29.07
2022-12-06T02:01:11.261Z,26.93
2022-12-06T02:03:38.407Z,24.53
2022-12-06T02:06:06.724Z,29.43
2022-12-06T02:08:34.351Z,28.20
2022-12-06T02:11:02.375Z,27.50
2022-12-06T02:13:30.116Z,27.27
2022-12-06T02:16:03.012Z,29.00
2022-12-06T02:18:35.347Z,25.07
2022-12-06T02:21:09.645Z,28.13
2022-12-06T02:23:44.188Z,27.13
2022-12-06T02:26:24.383Z,33.63
2022-12-06T02:29:08.428Z,29.67
2022-12-06T02:31:38.923Z,25.03
2022-12-06T02:34:11.321Z,29.13
2022-12-06T02:36:40.912Z,29.47
2022-12-06T02:39:09.697Z,27.83
2022-12-06T02:41:39.773Z,26.70
2022-12-06T02:44:08.648Z,29.57
2022-12-06T02:46:38.826Z,31.50
2022-12-06T02:49:07.890Z,26.23
2022-12-06T02:51:37.007Z,28.47
2022-12-06T02:54:06.652Z,29.83
2022-12-06T02:56:34.031Z,27.07
2022-12-06T02:59:01.411Z,27.50
2022-12-06T03:01:30.618Z,30.57
2022-12-06T03:04:12.665Z,27.87
2022-12-06T03:06:50.745Z,29.90
2022-12-06T03:09:34.478Z,31.43
2022-12-06T03:12:04.368Z,36.67
2022-12-06T03:14:35.006Z,30.23
2022-12-06T03:17:07.453Z,34.07
2022-12-06T03:19:35.025Z,35.40
2022-12-06T03:22:04.798Z,52.30
2022-12-06T03:24:32.729Z,54.20
2022-12-06T03:27:01.178Z,42.97
2022-12-06T03:29:31.097Z,31.90
2022-12-06T03:31:58.382Z,54.30
2022-12-06T03:34:27.816Z,53.37
2022-12-06T03:36:55.601Z,81.63
2022-12-06T03:39:26.343Z,72.33
2022-12-06T03:41:55.917Z,31.23
2022-12-06T03:44:23.290Z,34.73
2022-12-06T03:46:52.095Z,81.17
2022-12-06T03:49:20.907Z,72.53
2022-12-06T03:51:48.132Z,86.47
2022-12-06T03:54:15.235Z,73.73
2022-12-06T03:56:43.741Z,85.20
2022-12-06T03:59:11.785Z,66.60
2022-12-06T04:01:39.699Z,35.20
2022-12-06T04:04:06.998Z,72.83
2022-12-06T04:06:34.135Z,84.57
2022-12-06T04:09:01.268Z,66.63
2022-12-06T04:11:28.363Z,47.07
2022-12-06T04:13:56.825Z,44.93
2022-12-06T04:16:23.953Z,33.57
2022-12-06T04:18:51.058Z,33.20
2022-12-06T04:21:18.137Z,36.37
2022-12-06T04:23:46.663Z,38.60
2022-12-06T04:26:14.691Z,30.00
2022-12-06T04:28:42.244Z,68.67
2022-12-06T04:31:10.722Z,34.10
2022-12-06T04:33:37.865Z,33.33
2022-12-06T04:36:05.112Z,41.73
2022-12-06T04:38:32.228Z,30.73
2022-12-06T04:40:59.327Z,37.03
2022-12-06T04:43:26.396Z,36.67
2022-12-06T04:45:53.501Z,34.87
2022-12-06T04:48:22.181Z,31.17
2022-12-06T04:50:49.617Z,29.80
2022-12-06T04:53:16.687Z,36.03
2022-12-06T04:55:45.980Z,34.93
2022-12-06T04:58:13.085Z,32.03
2022-12-06T05:00:40.233Z,30.80
2022-12-06T05:03:07.345Z,37.80
2022-12-06T05:05:35.813Z,40.70
2022-12-06T05:08:02.953Z,50.27
2022-12-06T05:10:30.084Z,50.07
2022-12-06T05:12:57.213Z,40.80
2022-12-06T05:15:27.911Z,34.37
2022-12-06T05:17:56.322Z,63.77
2022-12-06T05:20:23.531Z,64.50
2022-12-06T05:22:52.032Z,47.40
2022-12-06T05:25:19.127Z,43.13
2022-12-06T05:27:46.220Z,41.23
2022-12-06T05:30:13.838Z,44.00
2022-12-06T05:32:41.184Z,38.83
2022-12-06T05:35:08.765Z,35.60
2022-12-06T05:37:35.975Z,34.17
2022-12-06T05:40:04.659Z,37.70
2022-12-06T05:42:31.769Z,75.07
2022-12-06T05:44:58.896Z,37.03
2022-12-06T05:47:25.967Z,42.80
2022-12-06T05:49:53.060Z,38.20
2022-12-06T05:52:20.176Z,48.83
2022-12-06T05:54:47.273Z,40.90
2022-12-06T05:57:15.876Z,51.07
2022-12-06T05:59:42.994Z,39.80
2022-12-06T06:02:10.265Z,37.27
2022-12-06T06:04:37.444Z,38.80
2022-12-06T06:07:04.579Z,43.13
2022-12-06T06:09:31.655Z,38.20
2022-12-06T06:11:58.871Z,46.80
2022-12-06T06:14:27.389Z,49.30
2022-12-06T06:16:54.544Z,44.90
2022-12-06T06:19:21.664Z,54.27
2022-12-06T06:21:48.753Z,48.43
2022-12-06T06:24:15.844Z,60.43
2022-12-06T06:26:42.988Z,58.83
2022-12-06T06:29:10.073Z,38.27
2022-12-06T06:31:38.576Z,46.87
2022-12-06T06:34:05.719Z,35.43
2022-12-06T06:36:32.847Z,46.33
2022-12-06T06:38:59.966Z,41.43
2022-12-06T06:41:27.089Z,39.97
2022-12-06T06:43:54.183Z,34.87
2022-12-06T06:46:21.363Z,37.50
2022-12-06T06:48:49.822Z,38.70
2022-12-06T06:51:16.914Z,44.73
2022-12-06T06:53:44.011Z,45.13
2022-12-06T06:56:11.136Z,38.37
2022-12-06T06:58:39.340Z,44.30
2022-12-06T07:01:08.129Z,41.83
2022-12-06T07:03:35.403Z,40.77
2022-12-06T07:06:05.030Z,38.30
2022-12-06T07:08:32.235Z,39.37
2022-12-06T07:10:59.334Z,36.47
2022-12-06T07:13:27.144Z,34.47
2022-12-06T07:15:54.271Z,39.07
2022-12-06T07:18:21.428Z,32.03
2022-12-06T07:20:49.167Z,33.60
2022-12-06T07:23:17.568Z,34.47
2022-12-06T07:25:44.670Z,38.80
2022-12-06T07:28:11.748Z,40.70
2022-12-06T07:30:38.908Z,47.73
2022-12-06T07:33:06.016Z,38.23
2022-12-06T07:36:03.728Z,44.10
2022-12-06T07:38:21.604Z,46.40
2022-12-06T07:41:03.944Z,44.17
2022-12-06T07:43:31.788Z,47.17
2022-12-06T07:45:58.920Z,36.73
2022-12-06T07:48:26.038Z,39.90
2022-12-06T07:50:53.193Z,37.90
2022-12-06T07:53:21.631Z,44.53
2022-12-06T07:55:48.756Z,44.17
2022-12-06T07:58:15.847Z,43.33
2022-12-06T08:00:42.955Z,42.30
2022-12-06T08:03:10.041Z,39.43
2022-12-06T08:05:37.147Z,39.80
2022-12-06T08:08:04.373Z,41.20
2022-12-06T08:10:32.898Z,36.40
2022-12-06T08:12:59.984Z,36.27
2022-12-06T08:15:27.104Z,35.60
2022-12-06T08:17:54.625Z,39.03
2022-12-06T08:20:21.745Z,39.80
2022-12-06T08:22:48.849Z,35.73
2022-12-06T08:25:15.968Z,38.70
2022-12-06T08:27:44.446Z,39.10
2022-12-06T08:30:11.648Z,37.60
2022-12-06T08:32:38.802Z,34.40
2022-12-06T08:35:06.341Z,37.30
2022-12-06T08:37:34.217Z,36.30
2022-12-06T08:40:01.496Z,38.40
2022-12-06T08:42:28.747Z,38.60
2022-12-06T08:44:57.218Z,36.63
2022-12-06T08:47:24.300Z,39.43
2022-12-06T08:49:51.436Z,35.17
2022-12-06T08:52:18.850Z,38.37
2022-12-06T08:54:45.974Z,38.17
2022-12-06T08:57:13.064Z,37.90
2022-12-06T08:59:40.161Z,35.07
2022-12-06T09:02:10.637Z,34.70
2022-12-06T09:04:37.873Z,36.83
2022-12-06T09:07:10.076Z,33.20
2022-12-06T09:09:38.760Z,34.30
2022-12-06T09:12:06.102Z,35.60
2022-12-06T09:14:33.224Z,34.23
2022-12-06T09:17:00.341Z,32.77
2022-12-06T09:19:28.787Z,31.73
2022-12-06T09:21:55.844Z,31.50
2022-12-06T09:24:22.965Z,31.50
2022-12-06T09:26:50.055Z,32.53
2022-12-06T09:29:17.909Z,32.20
2022-12-06T09:31:45.278Z,31.43
2022-12-06T09:34:13.152Z,31.20
2022-12-06T09:36:43.141Z,29.00
2022-12-06T09:39:11.672Z,25.80
2022-12-06T09:41:45.807Z,21.80
2022-12-06T09:44:25.062Z,20.90
2022-12-06T09:46:59.555Z,20.10
2022-12-06T09:49:31.284Z,19.27
2022-12-06T09:52:08.620Z,17.43
2022-12-06T09:54:47.515Z,17.40
2022-12-06T09:57:22.591Z,19.27
2022-12-06T09:59:55.422Z,17.97
2022-12-06T10:02:32.081Z,15.97
2022-12-06T10:05:05.005Z,15.60
2022-12-06T10:07:37.866Z,14.60
2022-12-06T10:10:14.096Z,15.17
2022-12-06T10:12:51.827Z,16.00
2022-12-06T10:15:24.772Z,15.00
2022-12-06T10:18:01.359Z,13.20
2022-12-06T10:20:30.864Z,13.70
2022-12-06T10:23:06.045Z,13.73
2022-12-06T10:25:37.712Z,14.40
2022-12-06T10:28:10.166Z,12.30
2022-12-06T10:30:40.365Z,12.33
2022-12-06T10:33:12.646Z,12.93
2022-12-06T10:35:43.532Z,11.97
2022-12-06T10:38:17.296Z,12.20
2022-12-06T10:40:49.922Z,12.73
2022-12-06T10:43:18.800Z,11.17
2022-12-06T10:45:48.897Z,11.13
2022-12-06T10:48:18.412Z,11.70
2022-12-06T10:50:47.576Z,11.37
2022-12-06T10:53:17.398Z,10.97
2022-12-06T10:55:47.625Z,11.43
2022-12-06T10:58:18.237Z,11.10
2022-12-06T11:00:51.177Z,10.53
2022-12-06T11:03:20.989Z,10.60
2022-12-06T11:05:50.597Z,9.90
2022-12-06T11:08:21.080Z,10.73
2022-12-06T11:10:48.731Z,10.47
2022-12-06T11:13:19.545Z,12.17
2022-12-06T11:15:50.204Z,11.10
2022-12-06T11:18:18.285Z,10.53
2022-12-06T11:20:47.083Z,10.60
2022-12-06T11:23:18.366Z,9.80
2022-12-06T11:25:55.575Z,9.50
2022-12-06T11:28:29.038Z,9.93
2022-12-06T11:30:56.983Z,9.33
2022-12-06T11:33:27.573Z,10.47
2022-12-06T11:35:54.736Z,9.73
2022-12-06T11:38:21.934Z,9.37
2022-12-06T11:40:50.698Z,8.03
2022-12-06T11:43:20.808Z,9.10
2022-12-06T11:45:49.281Z,9.33
2022-12-06T11:48:17.607Z,8.43
2022-12-06T11:50:45.529Z,8.70
2022-12-06T11:53:16.387Z,8.20
2022-12-06T11:55:44.672Z,9.37
2022-12-06T11:58:16.030Z,7.83
2022-12-06T12:00:55.684Z,8.20
2022-12-06T12:03:27.125Z,7.57
2022-12-06T12:06:06.963Z,7.57
2022-12-06T12:08:34.119Z,7.40
2022-12-06T12:11:02.084Z,8.03
2022-12-06T12:13:30.578Z,6.87
2022-12-06T12:15:58.722Z,7.67
2022-12-06T12:18:26.823Z,7.97
2022-12-06T12:20:55.321Z,6.47
2022-12-06T12:23:24.151Z,6.90
2022-12-06T12:26:01.114Z,6.10
2022-12-06T12:28:29.078Z,5.33
2022-12-06T12:30:58.122Z,5.60
2022-12-06T12:33:25.666Z,6.93
2022-12-06T12:35:54.809Z,6.13
2022-12-06T12:38:27.945Z,5.93
2022-12-06T12:40:56.675Z,6.87
2022-12-06T12:43:24.729Z,6.53
2022-12-06T12:46:12.991Z,7.17
2022-12-06T12:48:42.349Z,7.70
2022-12-06T12:51:20.924Z,6.20
2022-12-06T12:53:48.160Z,6.43
2022-12-06T12:56:16.584Z,7.10
2022-12-06T12:58:44.328Z,7.50
2022-12-06T13:01:19.021Z,6.60
2022-12-06T13:03:51.486Z,6.10
2022-12-06T13:06:21.873Z,6.23
2022-12-06T13:08:49.126Z,6.93
2022-12-06T13:11:16.773Z,7.00
2022-12-06T13:13:45.024Z,6.53
2022-12-06T13:16:13.563Z,7.00
2022-12-06T13:18:43.381Z,5.50
2022-12-06T13:21:21.023Z,6.23
2022-12-06T13:23:48.560Z,5.30
2022-12-06T13:26:17.278Z,5.20
2022-12-06T13:28:46.051Z,4.87
2022-12-06T13:31:16.200Z,4.30
2022-12-06T13:33:45.791Z,4.77
2022-12-06T13:36:15.066Z,5.10
2022-12-06T13:38:43.210Z,4.30
2022-12-06T13:41:12.331Z,4.53
2022-12-06T13:43:49.042Z,4.80
2022-12-06T13:46:24.314Z,4.40
2022-12-06T13:48:52.493Z,3.87
2022-12-06T13:51:40.308Z,4.50
2022-12-06T13:54:37.272Z,4.33
2022-12-06T13:57:25.318Z,5.20
2022-12-06T13:59:52.568Z,5.30
2022-12-06T14:02:43.795Z,5.00
2022-12-06T14:05:29.903Z,5.53
2022-12-06T14:07:58.026Z,5.50
2022-12-06T14:10:25.259Z,5.20
2022-12-06T14:13:00.334Z,6.03
2022-12-06T14:15:27.492Z,5.20
2022-12-06T14:18:03.367Z,4.70
2022-12-06T14:20:34.162Z,4.70
2022-12-06T14:23:01.297Z,4.90
2022-12-06T14:25:29.521Z,5.10
2022-12-06T14:28:04.832Z,5.10
2022-12-06T14:30:32.085Z,5.40
2022-12-06T14:32:59.984Z,6.33
2022-12-06T14:35:28.384Z,4.80
2022-12-06T14:37:57.172Z,5.60
2022-12-06T14:40:45.173Z,5.30
2022-12-06T14:43:16.038Z,5.30
2022-12-06T14:45:44.238Z,5.57
2022-12-06T14:48:12.328Z,4.80
2022-12-06T14:50:42.073Z,5.20
2022-12-06T14:53:12.852Z,4.80
2022-12-06T14:55:52.914Z,5.13
2022-12-06T14:58:22.803Z,5.20
2022-12-06T15:00:52.820Z,3.93
2022-12-06T15:03:23.048Z,4.83
2022-12-06T15:05:51.652Z,4.43
2022-12-06T15:08:19.802Z,5.30
2022-12-06T15:10:56.614Z,4.70
2022-12-06T15:13:25.116Z,4.30
2022-12-06T15:16:02.508Z,5.20
2022-12-06T15:18:30.481Z,5.53
2022-12-06T15:20:57.602Z,5.87
2022-12-06T15:23:28.792Z,5.10
2022-12-06T15:25:56.178Z,5.40
2022-12-06T15:28:24.824Z,5.27
2022-12-06T15:30:52.060Z,5.33
2022-12-06T15:33:20.580Z,6.17
2022-12-06T15:35:47.752Z,6.67
2022-12-06T15:38:14.851Z,5.93
2022-12-06T15:40:42.503Z,5.50
2022-12-06T15:43:20.753Z,5.57
2022-12-06T15:45:49.251Z,4.90
2022-12-06T15:48:16.371Z,5.20
2022-12-06T15:50:43.597Z,6.53
2022-12-06T15:53:13.057Z,5.73
2022-12-06T15:55:40.126Z,5.97
2022-12-06T15:58:07.237Z,6.00
2022-12-06T16:00:34.317Z,5.07
2022-12-06T16:03:02.837Z,6.40
2022-12-06T16:05:30.283Z,5.63
2022-12-06T16:07:57.472Z,5.30
2022-12-06T16:10:37.163Z,5.90
2022-12-06T16:13:12.689Z,6.47
2022-12-06T16:15:39.791Z,5.83
2022-12-06T16:18:08.337Z,5.90
2022-12-06T16:20:35.456Z,5.57
2022-12-06T16:23:03.501Z,6.37
2022-12-06T16:25:30.580Z,5.73
2022-12-06T16:27:57.702Z,5.40
2022-12-06T16:30:31.048Z,6.00
2022-12-06T16:33:01.576Z,6.63
2022-12-06T16:35:32.752Z,6.47
2022-12-06T16:37:59.904Z,5.50
2022-12-06T16:40:28.243Z,5.33
2022-12-06T16:42:55.328Z,5.23
2022-12-06T16:45:22.415Z,6.50
2022-12-06T16:47:50.863Z,6.40
2022-12-06T16:50:23.036Z,6.87
2022-12-06T16:52:52.227Z,6.53
2022-12-06T16:55:19.412Z,6.37
2022-12-06T16:57:46.566Z,5.83
2022-12-06T17:00:14.419Z,6.37
2022-12-06T17:02:41.715Z,5.60
2022-12-06T17:05:08.873Z,6.73
2022-12-06T17:07:36.448Z,6.03
2022-12-06T17:10:05.572Z,6.47
2022-12-06T17:12:32.673Z,6.83
2022-12-06T17:15:00.230Z,7.10
2022-12-06T17:17:27.759Z,6.50
2022-12-06T17:19:54.821Z,6.33
2022-12-06T17:22:21.897Z,7.00
2022-12-06T17:24:49.046Z,6.37
2022-12-06T17:27:17.522Z,6.07
2022-12-06T17:29:44.697Z,6.50
2022-12-06T17:32:12.156Z,6.43
2022-12-06T17:34:39.358Z,6.13
2022-12-06T17:37:06.485Z,7.93
2022-12-06T17:39:33.569Z,6.50
2022-12-06T17:42:00.692Z,6.90
2022-12-06T17:44:29.213Z,7.03
2022-12-06T17:46:56.330Z,6.50
2022-12-06T17:49:24.782Z,6.40
2022-12-06T17:51:52.153Z,6.37
2022-12-06T17:54:19.662Z,6.80
2022-12-06T17:56:47.264Z,6.53
2022-12-06T17:59:15.539Z,6.37
2022-12-06T18:02:13.388Z,6.33
2022-12-06T18:04:31.700Z,6.37
2022-12-06T18:06:58.981Z,7.60
2022-12-06T18:09:26.127Z,6.00
2022-12-06T18:11:53.228Z,5.40
2022-12-06T18:14:20.293Z,7.07
2022-12-06T18:16:48.780Z,7.20
2022-12-06T18:19:16.996Z,6.60
2022-12-06T18:21:44.191Z,6.13
2022-12-06T18:24:21.394Z,7.37
2022-12-06T18:26:49.589Z,7.10
2022-12-06T18:29:17.893Z,7.40
2022-12-06T18:31:45.083Z,7.20
2022-12-06T18:34:13.596Z,7.40
2022-12-06T18:36:40.821Z,7.53
2022-12-06T18:39:14.163Z,8.10
2022-12-06T18:41:42.352Z,7.63
2022-12-06T18:44:10.620Z,7.43
2022-12-06T18:46:37.889Z,8.13
2022-12-06T18:49:05.073Z,7.27
2022-12-06T18:51:34.367Z,8.47
2022-12-06T18:54:01.538Z,7.50
2022-12-06T18:56:28.795Z,8.30
2022-12-06T18:58:57.661Z,6.80
2022-12-06T19:01:25.624Z,7.17
2022-12-06T19:03:52.896Z,8.30
2022-12-06T19:06:21.205Z,8.43
2022-12-06T19:08:49.609Z,7.13
2022-12-06T19:11:17.021Z,8.37
2022-12-06T19:13:44.617Z,8.17
2022-12-06T19:16:11.778Z,7.30
2022-12-06T19:18:38.913Z,8.07
2022-12-06T19:21:06.120Z,6.97
2022-12-06T19:23:33.236Z,7.47
2022-12-06T19:26:01.975Z,8.20
2022-12-06T19:28:29.421Z,6.90
2022-12-06T19:30:57.004Z,6.67
2022-12-06T19:33:24.150Z,7.30
2022-12-06T19:35:56.944Z,7.07
2022-12-06T19:38:24.072Z,7.93
2022-12-06T19:40:51.183Z,7.40
2022-12-06T19:43:19.620Z,7.10
2022-12-06T19:45:46.734Z,6.63
2022-12-06T19:48:13.902Z,6.50
2022-12-06T19:50:41.006Z,7.00
2022-12-06T19:53:08.067Z,6.80
2022-12-06T19:55:35.164Z,6.23
2022-12-06T19:58:02.223Z,7.67
2022-12-06T20:00:30.675Z,7.13
2022-12-06T20:02:57.829Z,8.07
2022-12-06T20:05:25.054Z,7.20
2022-12-06T20:07:52.234Z,7.97
2022-12-06T20:10:19.349Z,7.60
2022-12-06T20:12:46.475Z,7.60
2022-12-06T20:15:13.594Z,8.97
2022-12-06T20:17:42.021Z,8.63
2022-12-06T20:20:09.316Z,8.77
2022-12-06T20:22:36.405Z,8.60
2022-12-06T20:25:03.588Z,8.57
2022-12-06T20:27:30.649Z,10.60
2022-12-06T20:29:57.805Z,9.17
2022-12-06T20:32:24.941Z,9.83
2022-12-06T20:34:53.417Z,9.57
2022-12-06T20:37:20.467Z,9.73
2022-12-06T20:39:47.563Z,9.90
2022-12-06T20:42:14.656Z,10.20
2022-12-06T20:44:41.748Z,11.60
2022-12-06T20:47:08.963Z,12.30
2022-12-06T20:49:36.216Z,11.77
2022-12-06T20:52:05.006Z,12.07
2022-12-06T20:54:32.098Z,13.07
2022-12-06T20:56:59.192Z,13.80
2022-12-06T20:59:26.316Z,14.90
2022-12-06T21:01:53.474Z,15.10
2022-12-06T21:04:20.610Z,15.10
2022-12-06T21:06:47.700Z,16.30
2022-12-06T21:09:16.176Z,15.50
2022-12-06T21:11:43.282Z,15.43
2022-12-06T21:14:11.720Z,17.47
2022-12-06T21:16:40.713Z,15.73
2022-12-06T21:19:08.672Z,15.17
2022-12-06T21:21:36.406Z,15.63
2022-12-06T21:24:04.714Z,15.33
2022-12-06T21:26:33.457Z,14.67
2022-12-06T21:29:00.592Z,15.70
2022-12-06T21:31:28.423Z,14.30
2022-12-06T21:33:55.770Z,15.40
2022-12-06T21:36:22.884Z,14.30
2022-12-06T21:38:50.051Z,13.27
2022-12-06T21:41:17.188Z,14.00
2022-12-06T21:43:45.652Z,14.20
2022-12-06T21:46:14.098Z,15.10
2022-12-06T21:48:41.388Z,15.23
2022-12-06T21:51:09.703Z,15.53
2022-12-06T21:53:37.231Z,14.07
2022-12-06T21:56:07.407Z,15.57
2022-12-06T21:58:34.801Z,15.03
2022-12-06T22:01:07.454Z,14.87
2022-12-06T22:03:34.591Z,14.60
2022-12-06T22:06:04.537Z,16.10
2022-12-06T22:08:31.636Z,15.20
2022-12-06T22:10:58.711Z,14.70
2022-12-06T22:13:25.845Z,15.20
2022-12-06T22:15:53.050Z,16.90
2022-12-06T22:18:21.564Z,14.23
2022-12-06T22:20:56.691Z,14.67
2022-12-06T22:23:23.805Z,15.10
2022-12-06T22:25:50.879Z,16.40
2022-12-06T22:28:17.999Z,16.30
2022-12-06T22:30:45.063Z,16.27
2022-12-06T22:33:12.152Z,16.97
2022-12-06T22:35:40.573Z,16.57
2022-12-06T22:38:07.719Z,15.70
2022-12-06T22:40:34.846Z,17.03
2022-12-06T22:43:01.982Z,18.30
2022-12-06T22:45:29.052Z,16.47
2022-12-06T22:47:56.149Z,16.80
2022-12-06T22:50:23.229Z,16.37
2022-12-06T22:52:51.652Z,17.33
2022-12-06T22:55:18.709Z,17.87
2022-12-06T22:57:45.812Z,17.83
2022-12-06T23:00:13.323Z,17.50
2022-12-06T23:02:40.419Z,17.90
2022-12-06T23:05:07.759Z,16.80
2022-12-06T23:07:34.882Z,18.30
2022-12-06T23:10:03.834Z,19.33
2022-12-06T23:12:31.165Z,17.73
2022-12-06T23:14:58.250Z,17.70
2022-12-06T23:17:25.321Z,20.17
2022-12-06T23:19:52.445Z,20.10
2022-12-06T23:22:19.517Z,18.57
2022-12-06T23:24:49.043Z,19.97
2022-12-06T23:27:17.864Z,18.70
2022-12-06T23:29:45.046Z,19.90
2022-12-06T23:32:12.257Z,19.13
2022-12-06T23:34:39.598Z,20.03
2022-12-06T23:37:06.713Z,18.70
2022-12-06T23:39:33.825Z,20.17
2022-12-06T23:42:00.932Z,21.30
2022-12-06T23:44:29.346Z,22.43
2022-12-06T23:46:56.504Z,24.27
2022-12-06T23:49:23.632Z,21.93
2022-12-06T23:51:50.775Z,23.10
2022-12-06T23:54:18.240Z,22.17
2022-12-06T23:56:45.335Z,22.63
2022-12-06T23:59:13.537Z,20.97
